createdAt,value
2019-05-06T00:00:11.117Z,82.8
2019-05-06T00:15:11.131Z,82.3
2019-05-06T00:30:11.122Z,82.3
2019-05-06T00:45:11.148Z,82.1
2019-05-06T01:00:13.451Z,81
2019-05-06T01:15:11.263Z,81.4
2019-05-06T01:30:11.282Z,81.4
2019-05-06T01:45:11.422Z,81.2
2019-05-06T02:00:11.446Z,81.3
2019-05-06T02:15:11.393Z,82.4
2019-05-06T02:30:11.502Z,83.5
2019-05-06T02:45:13.024Z,82.8
2019-05-06T03:00:13.483Z,83
2019-05-06T03:15:17.174Z,81.8
2019-05-06T03:30:17.479Z,81
2019-05-06T03:45:13.541Z,82.1
2019-05-06T04:00:16.642Z,81.6
2019-05-06T04:15:14.559Z,82.2
2019-05-06T04:30:13.900Z,82.4
2019-05-06T04:45:17.764Z,82.3
2019-05-06T05:00:13.522Z,82.6
2019-05-06T05:15:12.120Z,81
2019-05-06T05:30:12.802Z,79.5
2019-05-06T05:45:13.155Z,79
2019-05-06T06:00:13.242Z,79.6
2019-05-06T06:15:12.931Z,78.7
2019-05-06T06:30:13.152Z,78.4
2019-05-06T06:45:12.661Z,72.5
2019-05-06T07:00:12.759Z,68.4
2019-05-06T07:15:12.945Z,63.2
2019-05-06T07:30:12.856Z,58.9
2019-05-06T07:45:12.776Z,60.4
2019-05-06T08:00:13.046Z,53.7
2019-05-06T08:15:06.358Z,56.8
2019-05-06T08:30:03.733Z,57.4
2019-05-06T08:45:07.286Z,54.4
2019-05-06T09:00:04.040Z,56.1
2019-05-06T09:15:09.368Z,58.4
2019-05-06T09:30:13.496Z,48.9
2019-05-06T09:45:12.838Z,49.8
2019-05-06T10:00:12.822Z,48.1
2019-05-06T10:15:13.026Z,45.2
2019-05-06T10:30:12.847Z,50.5
2019-05-06T10:45:12.701Z,47.8
2019-05-06T11:00:12.712Z,47.7
2019-05-06T11:15:04.006Z,49
2019-05-06T11:30:03.529Z,45.7
2019-05-06T11:45:03.615Z,46.6
2019-05-06T12:00:03.603Z,46.3
2019-05-06T12:15:07.588Z,47.4
2019-05-06T12:30:12.623Z,51.4
2019-05-06T12:45:13.427Z,52.7
2019-05-06T13:00:13.461Z,54.7
2019-05-06T13:15:08.537Z,56.3
2019-05-06T13:30:05.288Z,58.3
2019-05-06T13:45:05.333Z,56.9
2019-05-06T14:00:05.390Z,59.1
2019-05-06T14:15:05.434Z,57.7
2019-05-06T14:30:05.510Z,57.1
2019-05-06T14:45:05.603Z,55
2019-05-06T15:00:05.598Z,55.2
2019-05-06T15:15:05.609Z,53.5
2019-05-06T15:30:05.645Z,56.7
2019-05-06T15:45:05.705Z,55.9
2019-05-06T16:00:05.706Z,55.2
2019-05-06T16:15:05.761Z,54.8
2019-05-06T16:30:07.576Z,55.2
2019-05-06T16:45:07.626Z,55.2
2019-05-06T17:00:07.649Z,57.6
2019-05-06T17:15:07.678Z,59.3
2019-05-06T17:30:07.769Z,59.5
2019-05-06T17:45:07.757Z,59.1
2019-05-06T18:00:07.767Z,59.2
2019-05-06T18:15:08.953Z,60.5
2019-05-06T18:30:32.354Z,63.1
2019-05-06T18:45:09.874Z,61.7
2019-05-06T19:00:09.900Z,63.5
2019-05-06T19:15:12.735Z,64.1
2019-05-06T19:30:10.262Z,65.6
2019-05-06T19:45:10.327Z,66.6
2019-05-06T20:00:10.287Z,65.6
2019-05-06T20:15:10.501Z,66.5
2019-05-06T20:30:10.391Z,66.5
2019-05-06T20:45:12.954Z,66.3
2019-05-06T21:00:12.353Z,67.9
2019-05-06T21:15:10.549Z,67.9
2019-05-06T21:30:10.567Z,67.3
2019-05-06T21:45:12.968Z,68.2
2019-05-06T22:00:17.319Z,67.6
2019-05-06T22:15:12.171Z,70.2
2019-05-06T22:30:11.251Z,70.4
2019-05-06T22:45:12.904Z,71.8
2019-05-06T23:00:15.430Z,70.9
2019-05-06T23:15:12.413Z,72
2019-05-06T23:30:13.109Z,72.3
2019-05-06T23:45:12.392Z,73.1
